Time;durP1;ratioP1;P1;durP2;ratioP2;P2;SDS_P1;SDS_P2;PMS_P1;PMS_P2;Temp;Humidity;BMP_temperature;BMP_pressure;BME280_temperature;BME280_humidity;BME280_pressure;Samples;Min_cycle;Max_cycle;Signal;HPM_P1;HPM_P2
2022/05/14 00:02:03;;;;;;;10.07;4.10;;;12.60;99.90;;;;;;4940779;28;20481;-73
2022/05/14 00:04:31;;;;;;;6.37;4.30;;;12.60;99.90;;;;;;4940882;28;20544;-74
2022/05/14 00:06:59;;;;;;;11.13;3.90;;;12.70;99.90;;;;;;4940559;28;20544;-74
2022/05/14 00:09:27;;;;;;;8.17;4.80;;;12.70;99.90;;;;;;4941180;28;20448;-74
2022/05/14 00:14:42;;;;;;;21.13;5.03;;;12.70;99.90;;;;;;4941479;28;20445;-74
2022/05/14 00:17:10;;;;;;;12.23;3.40;;;12.70;99.90;;;;;;4940031;28;20463;-73
2022/05/14 00:19:38;;;;;;;6.80;3.57;;;12.70;99.90;;;;;;4940892;28;20518;-73
2022/05/14 00:22:05;;;;;;;8.13;3.93;;;12.60;99.90;;;;;;4941001;28;20986;-73
2022/05/14 00:24:33;;;;;;;4.90;4.23;;;12.70;99.90;;;;;;4940217;28;20947;-73
2022/05/14 00:27:01;;;;;;;5.70;3.63;;;12.60;99.90;;;;;;4940973;28;20964;-72
2022/05/14 00:29:30;;;;;;;8.23;4.73;;;12.60;99.90;;;;;;4939615;28;20962;-73
2022/05/14 00:31:59;;;;;;;8.03;4.20;;;12.50;99.90;;;;;;4939973;28;20500;-72
2022/05/14 00:34:27;;;;;;;5.77;4.00;;;12.50;99.90;;;;;;4943177;28;20544;-72
2022/05/14 00:36:55;;;;;;;11.67;4.40;;;12.50;99.90;;;;;;4939948;28;20503;-73
2022/05/14 00:39:23;;;;;;;7.90;3.40;;;12.50;99.90;;;;;;4940413;28;20449;-72
2022/05/14 00:41:50;;;;;;;8.43;4.50;;;12.50;99.90;;;;;;4940184;28;21041;-73
2022/05/14 00:44:18;;;;;;;10.20;5.00;;;12.50;99.90;;;;;;4940216;28;20465;-72
2022/05/14 00:46:49;;;;;;;8.73;4.90;;;12.50;99.90;;;;;;4941067;28;20935;-72
2022/05/14 00:49:22;;;;;;;7.20;3.80;;;12.50;99.90;;;;;;4940534;28;21057;-72
2022/05/14 00:51:51;;;;;;;4.93;3.90;;;12.50;99.90;;;;;;4942191;28;20501;-73
2022/05/14 00:54:37;;;;;;;8.70;4.60;;;12.50;99.90;;;;;;4944074;28;20528;-73
2022/05/14 00:57:10;;;;;;;10.43;4.70;;;12.60;99.90;;;;;;4944664;28;20448;-77
2022/05/14 00:59:38;;;;;;;9.60;3.20;;;12.50;99.90;;;;;;4943586;28;20452;-74
2022/05/14 01:02:07;;;;;;;12.00;4.90;;;12.50;99.90;;;;;;4942719;28;20503;-75
2022/05/14 01:04:40;;;;;;;7.60;4.07;;;12.50;99.90;;;;;;4942708;28;21111;-73
2022/05/14 01:07:12;;;;;;;8.70;4.63;;;12.40;99.90;;;;;;4941603;28;20448;-75
2022/05/14 01:09:43;;;;;;;7.00;5.07;;;12.40;99.90;;;;;;4942417;28;20454;-75
2022/05/14 01:12:12;;;;;;;9.13;4.70;;;12.30;99.90;;;;;;4940927;28;20433;-75
2022/05/14 01:14:40;;;;;;;8.30;4.00;;;12.30;99.90;;;;;;4941958;28;20819;-76
2022/05/14 01:17:07;;;;;;;7.50;4.40;;;12.20;99.90;;;;;;4941608;28;20441;-73
2022/05/14 01:19:37;;;;;;;13.60;4.80;;;12.20;99.90;;;;;;4940830;28;20784;-73
2022/05/14 01:22:22;;;;;;;6.47;4.00;;;12.10;99.90;;;;;;4940277;28;20512;-72
2022/05/14 01:27:47;;;;;;;9.13;5.80;;;12.00;99.90;;;;;;4941804;28;20491;-74
2022/05/14 01:30:16;;;;;;;10.70;4.60;;;11.90;99.90;;;;;;4944846;28;20815;-73
2022/05/14 01:32:46;;;;;;;9.10;5.40;;;11.90;99.90;;;;;;4944027;28;20452;-73
2022/05/14 01:35:16;;;;;;;9.13;4.57;;;11.90;99.90;;;;;;4944867;28;20734;-71
2022/05/14 01:37:44;;;;;;;10.50;5.87;;;11.90;99.90;;;;;;4943566;28;20468;-72
2022/05/14 01:40:13;;;;;;;10.20;5.20;;;12.00;99.90;;;;;;4944002;28;21037;-75
2022/05/14 01:42:40;;;;;;;12.37;4.60;;;12.00;99.90;;;;;;4943688;28;20857;-75
2022/05/14 01:45:11;;;;;;;9.77;5.00;;;12.00;99.90;;;;;;4944160;29;20877;-74
2022/05/14 01:47:39;;;;;;;7.10;5.10;;;12.00;99.90;;;;;;4943533;28;20739;-74
2022/05/14 01:50:08;;;;;;;10.83;4.77;;;12.10;99.90;;;;;;4944747;28;20464;-74
2022/05/14 01:52:36;;;;;;;6.97;4.90;;;12.20;99.90;;;;;;4943643;28;20764;-74
2022/05/14 01:55:05;;;;;;;4.37;3.70;;;12.20;99.90;;;;;;4943328;28;20795;-73
2022/05/14 01:57:33;;;;;;;7.77;5.20;;;12.20;99.90;;;;;;4944305;28;20444;-73
2022/05/14 02:00:01;;;;;;;7.33;5.27;;;12.20;99.90;;;;;;4942712;28;20874;-72
2022/05/14 02:02:30;;;;;;;9.30;4.60;;;12.20;99.90;;;;;;4943415;28;20486;-72
2022/05/14 02:04:58;;;;;;;5.70;5.10;;;12.20;99.90;;;;;;4943932;28;20979;-72
2022/05/14 02:07:26;;;;;;;8.07;4.93;;;12.20;99.90;;;;;;4943255;28;20444;-75
2022/05/14 02:09:54;;;;;;;6.30;4.70;;;12.30;99.90;;;;;;4943201;28;20464;-75
2022/05/14 02:12:22;;;;;;;5.90;4.70;;;12.40;99.90;;;;;;4943655;28;20453;-75
2022/05/14 02:14:50;;;;;;;11.07;5.50;;;12.40;99.90;;;;;;4942913;28;20536;-76
2022/05/14 02:17:18;;;;;;;15.27;5.50;;;12.40;99.90;;;;;;4942935;28;20624;-74
2022/05/14 02:19:48;;;;;;;8.53;5.00;;;12.50;99.90;;;;;;4943378;28;20489;-76
2022/05/14 02:22:16;;;;;;;10.70;5.07;;;12.50;99.90;;;;;;4943296;28;21093;-75
2022/05/14 02:24:43;;;;;;;13.63;4.93;;;12.50;99.90;;;;;;4943140;28;20866;-75
2022/05/14 02:27:11;;;;;;;11.50;5.53;;;12.50;99.90;;;;;;4943205;28;20448;-75
2022/05/14 02:29:57;;;;;;;16.30;6.03;;;12.50;99.90;;;;;;4943104;28;20733;-75
2022/05/14 02:32:27;;;;;;;6.23;5.13;;;12.40;99.90;;;;;;4943236;28;20456;-75
2022/05/14 02:34:57;;;;;;;9.07;5.80;;;12.30;99.90;;;;;;4943059;28;20739;-74
2022/05/14 02:37:27;;;;;;;8.50;5.23;;;12.20;99.90;;;;;;4942172;28;20523;-75
2022/05/14 02:39:55;;;;;;;10.23;5.63;;;12.20;99.90;;;;;;4943161;28;20958;-76
2022/05/14 02:42:23;;;;;;;7.60;5.10;;;12.10;99.90;;;;;;4945892;28;20491;-77
2022/05/14 02:44:51;;;;;;;13.00;5.53;;;12.10;99.90;;;;;;4946514;28;20783;-78
2022/05/14 02:47:19;;;;;;;12.27;7.47;;;12.10;99.90;;;;;;4942828;28;20710;-75
2022/05/14 02:49:47;;;;;;;13.00;5.33;;;12.10;99.90;;;;;;4942980;28;20718;-73
2022/05/14 02:52:17;;;;;;;12.20;6.03;;;12.00;99.90;;;;;;4942883;28;20617;-76
2022/05/14 02:54:44;;;;;;;6.47;5.17;;;12.10;99.90;;;;;;4942659;28;20815;-76
2022/05/14 02:57:12;;;;;;;10.63;5.97;;;12.10;99.90;;;;;;4943204;28;20735;-77
2022/05/14 02:59:40;;;;;;;9.87;5.20;;;12.10;99.90;;;;;;4944434;28;20511;-79
2022/05/14 03:02:08;;;;;;;8.50;6.40;;;12.10;99.90;;;;;;4946058;28;20474;-79
2022/05/14 03:04:39;;;;;;;7.50;5.53;;;12.10;99.90;;;;;;4944318;28;20734;-74
2022/05/14 03:07:10;;;;;;;7.90;5.80;;;12.10;99.90;;;;;;4942261;28;20850;-73
2022/05/14 03:09:40;;;;;;;9.73;6.43;;;12.10;99.90;;;;;;4942616;28;20447;-75
2022/05/14 03:12:10;;;;;;;9.30;5.03;;;12.00;99.90;;;;;;4942437;28;21100;-76
2022/05/14 03:14:39;;;;;;;10.77;6.23;;;11.90;99.90;;;;;;4942543;28;20466;-76
2022/05/14 03:17:08;;;;;;;7.17;5.40;;;11.90;99.90;;;;;;4942578;28;20448;-73
2022/05/14 03:19:36;;;;;;;12.43;5.57;;;11.90;99.90;;;;;;4945839;28;20437;-81
2022/05/14 03:22:04;;;;;;;12.90;6.20;;;11.90;99.90;;;;;;4944227;28;20473;-78
2022/05/14 03:24:33;;;;;;;14.27;6.20;;;11.90;99.90;;;;;;4952216;28;20696;-78
2022/05/14 03:27:02;;;;;;;11.07;6.67;;;11.90;99.90;;;;;;4961101;28;20472;-79
2022/05/14 03:29:30;;;;;;;9.40;6.93;;;11.90;99.90;;;;;;4962478;28;20436;-79
2022/05/14 03:31:58;;;;;;;13.37;6.60;;;11.90;99.90;;;;;;4964235;28;20481;-79
2022/05/14 03:34:27;;;;;;;10.30;6.20;;;11.80;99.90;;;;;;4964880;28;21058;-79
2022/05/14 03:36:55;;;;;;;10.87;6.07;;;11.80;99.90;;;;;;4954554;28;20528;-78
2022/05/14 03:39:23;;;;;;;14.97;6.63;;;11.80;99.90;;;;;;4945935;28;20448;-78
2022/05/14 03:41:51;;;;;;;12.03;6.60;;;11.70;99.90;;;;;;4945134;28;20461;-76
2022/05/14 03:44:20;;;;;;;13.87;7.73;;;11.70;99.90;;;;;;4942760;28;20476;-74
2022/05/14 03:46:48;;;;;;;11.30;6.30;;;11.70;99.90;;;;;;4942201;28;20448;-74
2022/05/14 03:49:15;;;;;;;9.60;6.03;;;11.70;99.90;;;;;;4941523;28;20448;-75
2022/05/14 03:51:43;;;;;;;10.33;6.63;;;11.70;99.90;;;;;;4941464;28;20578;-76
2022/05/14 03:54:11;;;;;;;10.27;6.83;;;11.70;99.90;;;;;;4942465;28;20747;-77
2022/05/14 03:56:39;;;;;;;9.33;6.90;;;11.70;99.90;;;;;;4942431;28;20475;-77
2022/05/14 03:59:07;;;;;;;9.00;6.17;;;11.80;99.90;;;;;;4941809;28;20501;-77
2022/05/14 04:01:37;;;;;;;12.73;8.17;;;11.80;99.90;;;;;;4943196;28;20469;-77
2022/05/14 04:04:06;;;;;;;11.60;6.20;;;11.90;99.90;;;;;;4941912;28;20480;-77
2022/05/14 04:06:34;;;;;;;11.97;6.50;;;11.90;99.90;;;;;;4941781;28;20483;-76
2022/05/14 04:09:03;;;;;;;11.33;6.23;;;12.00;99.90;;;;;;4941454;28;20455;-77
2022/05/14 04:11:31;;;;;;;11.23;6.23;;;12.10;99.90;;;;;;4941890;28;20850;-77
2022/05/14 04:13:59;;;;;;;13.07;7.10;;;12.10;99.90;;;;;;4942606;28;21020;-76
2022/05/14 04:16:27;;;;;;;10.90;6.53;;;12.20;99.90;;;;;;4942770;28;20447;-76
2022/05/14 04:18:57;;;;;;;9.33;6.43;;;12.20;99.90;;;;;;4941085;28;20462;-78
2022/05/14 04:21:24;;;;;;;7.60;5.90;;;12.20;99.90;;;;;;4941450;28;20532;-76
2022/05/14 04:23:52;;;;;;;12.00;6.03;;;12.20;99.90;;;;;;4941222;28;20630;-75
2022/05/14 04:26:23;;;;;;;15.67;6.33;;;12.30;99.90;;;;;;4941100;28;20727;-75
2022/05/14 04:28:51;;;;;;;9.37;6.37;;;12.30;99.90;;;;;;4936415;28;20748;-74
2022/05/14 04:31:21;;;;;;;15.07;6.30;;;12.40;99.90;;;;;;4941243;28;20544;-76
2022/05/14 04:33:49;;;;;;;9.83;6.50;;;12.40;99.90;;;;;;4941179;28;20451;-75
2022/05/14 04:36:18;;;;;;;12.43;7.40;;;12.40;99.90;;;;;;4940817;28;20448;-72
2022/05/14 04:38:46;;;;;;;14.73;7.30;;;12.50;99.90;;;;;;4940020;28;20587;-73
2022/05/14 04:41:14;;;;;;;11.67;6.60;;;12.50;99.90;;;;;;4939135;28;20480;-73
2022/05/14 04:43:42;;;;;;;19.13;5.73;;;12.60;99.90;;;;;;4942217;28;20858;-75
2022/05/14 04:46:10;;;;;;;9.63;6.10;;;12.70;99.90;;;;;;4938635;28;20457;-75
2022/05/14 04:48:38;;;;;;;14.20;6.00;;;12.80;99.90;;;;;;4937001;28;20448;-76
2022/05/14 04:51:06;;;;;;;14.20;6.10;;;12.90;99.90;;;;;;4939205;28;20918;-75
2022/05/14 04:53:35;;;;;;;9.97;5.93;;;12.90;99.90;;;;;;4937075;28;20967;-75
2022/05/14 04:56:04;;;;;;;10.53;6.43;;;13.10;99.90;;;;;;4939414;28;20452;-72
2022/05/14 04:58:31;;;;;;;14.80;7.00;;;13.10;99.90;;;;;;4940921;28;20461;-79
2022/05/14 05:00:59;;;;;;;14.00;6.20;;;13.20;99.90;;;;;;4936930;28;21046;-77
2022/05/14 05:03:28;;;;;;;13.13;5.57;;;13.30;99.90;;;;;;4936729;29;20851;-79
2022/05/14 05:05:57;;;;;;;12.60;6.07;;;13.30;99.90;;;;;;4939752;28;20456;-77
2022/05/14 05:08:27;;;;;;;15.27;6.50;;;13.40;99.90;;;;;;4937780;28;20457;-77
2022/05/14 05:10:57;;;;;;;15.03;7.50;;;13.40;99.90;;;;;;4933637;28;20477;-78
2022/05/14 05:13:31;;;;;;;12.13;5.83;;;13.40;99.90;;;;;;4938529;28;20547;-77
2022/05/14 05:15:59;;;;;;;9.10;5.17;;;13.40;99.90;;;;;;4936046;29;20943;-78
2022/05/14 05:18:27;;;;;;;13.33;6.60;;;13.50;99.90;;;;;;4936883;28;20468;-78
2022/05/14 05:20:56;;;;;;;16.80;7.57;;;13.50;99.90;;;;;;4928036;29;20988;-78
2022/05/14 05:23:26;;;;;;;17.63;7.90;;;13.50;99.90;;;;;;4935684;28;20459;-78
2022/05/14 05:25:54;;;;;;;11.17;6.90;;;13.50;99.90;;;;;;4940041;28;20453;-78
2022/05/14 05:28:24;;;;;;;15.13;6.87;;;13.50;99.90;;;;;;4940457;28;20527;-78
2022/05/14 05:30:51;;;;;;;15.47;5.97;;;13.50;99.90;;;;;;4939654;28;20496;-78
2022/05/14 05:33:21;;;;;;;11.73;5.53;;;13.60;99.90;;;;;;4937250;28;20456;-78
2022/05/14 05:35:49;;;;;;;12.47;6.27;;;13.50;99.90;;;;;;4937725;28;20453;-79
2022/05/14 05:38:18;;;;;;;11.70;6.50;;;13.50;99.90;;;;;;4940550;28;20860;-79
2022/05/14 05:40:46;;;;;;;15.50;6.77;;;13.60;99.90;;;;;;4941746;28;20464;-79
2022/05/14 05:43:14;;;;;;;12.90;6.30;;;13.70;99.90;;;;;;4939948;28;20871;-79
2022/05/14 05:45:48;;;;;;;15.83;7.40;;;13.70;99.90;;;;;;4941594;28;20488;-79
2022/05/14 05:48:15;;;;;;;16.77;6.93;;;13.70;99.90;;;;;;4938721;28;20491;-79
2022/05/14 05:50:48;;;;;;;20.50;6.57;;;13.70;99.90;;;;;;4927640;29;20487;-81
2022/05/14 05:53:17;;;;;;;14.50;6.20;;;13.80;99.90;;;;;;4951764;29;20686;-82
2022/05/14 05:58:32;;;;;;;20.50;7.17;;;13.90;99.90;;;;;;4928599;29;20547;-76
2022/05/14 06:01:01;;;;;;;23.87;9.47;;;14.00;99.90;;;;;;4940139;28;20480;-77
2022/05/14 06:03:29;;;;;;;13.73;6.03;;;14.10;99.90;;;;;;4939810;28;21054;-77
2022/05/14 06:05:56;;;;;;;13.10;5.60;;;14.20;99.90;;;;;;4941325;28;20489;-77
2022/05/14 06:08:25;;;;;;;15.33;6.07;;;14.30;99.90;;;;;;4940505;28;20524;-78
2022/05/14 06:10:56;;;;;;;12.27;5.40;;;14.40;99.90;;;;;;4939820;28;20480;-77
2022/05/14 06:13:23;;;;;;;20.97;6.90;;;14.50;99.90;;;;;;4940625;28;20460;-77
2022/05/14 06:15:52;;;;;;;21.00;7.10;;;14.60;99.90;;;;;;4944162;28;20453;-77
2022/05/14 06:18:22;;;;;;;16.43;6.47;;;14.80;99.90;;;;;;4943023;28;20960;-76
2022/05/14 06:20:49;;;;;;;17.60;8.00;;;14.80;99.90;;;;;;4945094;28;20550;-77
2022/05/14 06:23:17;;;;;;;21.97;8.13;;;14.80;99.90;;;;;;4943911;28;20738;-77
2022/05/14 06:25:45;;;;;;;16.40;6.53;;;14.90;99.90;;;;;;4943665;28;20582;-77
2022/05/14 06:28:13;;;;;;;15.73;5.93;;;14.90;99.90;;;;;;4943640;28;20456;-77
2022/05/14 06:30:43;;;;;;;13.60;5.93;;;15.00;99.90;;;;;;4946863;28;21146;-76
2022/05/14 06:33:14;;;;;;;13.50;6.67;;;15.10;99.90;;;;;;4943701;28;20433;-77
2022/05/14 06:35:44;;;;;;;21.73;7.53;;;15.20;99.90;;;;;;4944618;28;20754;-76
2022/05/14 06:38:13;;;;;;;18.03;6.90;;;15.20;99.90;;;;;;4944530;28;20444;-77
2022/05/14 06:40:42;;;;;;;14.30;6.63;;;15.20;99.90;;;;;;4944491;28;20461;-77
2022/05/14 06:43:10;;;;;;;15.00;6.07;;;15.30;99.90;;;;;;4948532;28;20847;-73
2022/05/14 06:45:39;;;;;;;15.60;7.30;;;15.40;99.90;;;;;;4942462;28;21038;-74
2022/05/14 06:48:07;;;;;;;16.70;7.60;;;15.50;99.90;;;;;;4943106;28;20441;-76
2022/05/14 06:50:41;;;;;;;14.63;7.27;;;15.50;99.90;;;;;;4947075;28;20976;-80
2022/05/14 06:53:11;;;;;;;19.40;7.57;;;15.50;99.90;;;;;;4943219;28;20443;-72
2022/05/14 06:55:41;;;;;;;18.90;6.30;;;15.50;99.90;;;;;;4942047;28;20455;-72
2022/05/14 06:58:13;;;;;;;12.90;6.37;;;15.60;99.90;;;;;;4942248;28;20456;-73
2022/05/14 07:00:42;;;;;;;13.23;5.90;;;15.60;99.90;;;;;;4942843;28;20465;-72
2022/05/14 07:08:44;;;;;;;19.77;6.67;;;15.90;99.90;;;;;;4942145;28;21019;-72
2022/05/14 07:11:12;;;;;;;13.43;6.20;;;15.90;99.90;;;;;;4941438;28;20851;-72
2022/05/14 07:13:40;;;;;;;17.03;5.97;;;16.10;99.90;;;;;;4939337;28;20473;-72
2022/05/14 07:16:14;;;;;;;18.80;5.43;;;16.20;99.90;;;;;;4941782;28;20449;-77
2022/05/14 07:18:42;;;;;;;16.70;5.67;;;16.30;99.90;;;;;;4942243;28;20443;-76
2022/05/14 07:21:10;;;;;;;12.03;5.30;;;16.40;99.90;;;;;;4941705;28;20477;-76
2022/05/14 07:23:38;;;;;;;16.60;6.37;;;16.30;99.90;;;;;;4940831;28;20472;-76
2022/05/14 07:26:09;;;;;;;16.53;5.10;;;16.30;99.90;;;;;;4942054;28;20516;-76
2022/05/14 07:28:37;;;;;;;12.33;6.13;;;16.10;99.90;;;;;;4941401;28;20559;-77
2022/05/14 07:31:05;;;;;;;20.23;6.43;;;16.00;99.90;;;;;;4939308;28;20470;-77
2022/05/14 07:33:33;;;;;;;14.93;5.80;;;16.00;99.90;;;;;;4942035;28;20845;-76
2022/05/14 07:36:06;;;;;;;15.70;6.30;;;15.90;99.90;;;;;;4940766;28;20845;-77
2022/05/14 07:38:36;;;;;;;15.67;5.83;;;15.90;99.90;;;;;;4942068;28;20457;-76
2022/05/14 07:41:05;;;;;;;20.73;5.43;;;15.90;99.90;;;;;;4941767;28;20488;-77
2022/05/14 07:43:38;;;;;;;12.63;6.77;;;15.90;99.90;;;;;;4942061;28;20491;-76
2022/05/14 07:46:12;;;;;;;15.57;6.67;;;15.90;99.90;;;;;;4929976;29;20548;-76
2022/05/14 07:48:41;;;;;;;15.27;6.00;;;15.90;99.90;;;;;;4933866;28;20917;-79
2022/05/14 07:51:11;;;;;;;12.73;5.70;;;15.90;99.90;;;;;;4937089;29;21027;-76
2022/05/14 07:53:39;;;;;;;17.03;5.00;;;15.90;99.90;;;;;;4941287;29;20543;-76
2022/05/14 07:56:09;;;;;;;20.43;5.53;;;15.90;99.90;;;;;;4941493;28;20449;-77
2022/05/14 07:58:40;;;;;;;14.80;5.30;;;16.00;99.90;;;;;;4941137;28;20500;-77
2022/05/14 08:01:08;;;;;;;13.97;5.97;;;16.10;99.90;;;;;;4941949;28;20484;-78
2022/05/14 08:03:36;;;;;;;15.90;6.37;;;16.20;99.90;;;;;;4941557;28;20743;-76
2022/05/14 08:06:05;;;;;;;14.07;6.40;;;16.40;99.90;;;;;;4941062;28;20480;-78
2022/05/14 08:08:33;;;;;;;15.77;5.40;;;16.60;99.90;;;;;;4942285;28;20468;-77
2022/05/14 08:11:00;;;;;;;18.90;5.00;;;16.80;99.90;;;;;;4944303;28;20464;-76
2022/05/14 08:13:29;;;;;;;20.07;4.77;;;16.90;99.90;;;;;;4942023;28;20869;-77
2022/05/14 08:15:58;;;;;;;14.27;4.80;;;17.00;99.90;;;;;;4941144;28;20536;-76
2022/05/14 08:18:26;;;;;;;11.40;4.00;;;17.20;99.90;;;;;;4941701;28;20855;-77
2022/05/14 08:20:54;;;;;;;12.57;4.57;;;17.30;99.90;;;;;;4940834;28;20870;-77
2022/05/14 08:26:09;;;;;;;9.73;3.70;;;17.30;99.90;;;;;;4940328;29;20527;-76
2022/05/14 08:28:36;;;;;;;7.27;3.77;;;17.20;99.90;;;;;;4940542;28;20451;-76
2022/05/14 08:31:06;;;;;;;9.20;5.13;;;17.20;99.90;;;;;;4940695;28;20490;-75
2022/05/14 08:33:34;;;;;;;19.80;4.90;;;17.10;99.90;;;;;;4940709;28;20507;-75
2022/05/14 08:36:02;;;;;;;9.60;3.43;;;17.00;99.90;;;;;;4940539;28;20845;-78
2022/05/14 08:38:29;;;;;;;8.23;3.17;;;17.10;99.90;;;;;;4940588;28;20472;-77
2022/05/14 08:40:59;;;;;;;11.53;4.40;;;17.20;99.90;;;;;;4940513;28;20481;-77
2022/05/14 08:43:31;;;;;;;10.73;4.47;;;17.30;99.90;;;;;;4941564;28;21273;-78
2022/05/14 08:45:59;;;;;;;11.93;4.77;;;17.20;99.90;;;;;;4941266;28;20482;-77
2022/05/14 08:48:31;;;;;;;14.53;4.23;;;17.40;99.90;;;;;;4940573;28;20604;-77
2022/05/14 08:51:06;;;;;;;11.90;3.97;;;17.50;99.90;;;;;;4940610;28;20487;-77
2022/05/14 08:53:37;;;;;;;7.63;3.90;;;17.70;99.90;;;;;;4941167;28;20472;-77
2022/05/14 08:56:19;;;;;;;12.73;4.10;;;17.80;99.90;;;;;;4940582;28;20452;-76
2022/05/14 08:58:59;;;;;;;12.47;4.30;;;17.80;99.90;;;;;;4941937;28;20455;-76
2022/05/14 09:01:30;;;;;;;13.63;3.90;;;18.00;99.90;;;;;;4941214;28;20463;-77
2022/05/14 09:03:59;;;;;;;8.33;4.20;;;18.00;99.90;;;;;;4942154;28;20498;-74
2022/05/14 09:06:27;;;;;;;14.73;3.80;;;18.00;99.90;;;;;;4938788;28;20508;-78
2022/05/14 09:08:55;;;;;;;8.20;3.90;;;18.00;99.90;;;;;;4939249;28;20468;-77
2022/05/14 09:11:27;;;;;;;13.93;4.10;;;18.00;99.90;;;;;;4938966;28;21032;-75
2022/05/14 09:14:00;;;;;;;15.27;4.10;;;17.90;99.90;;;;;;4937851;28;20461;-84
2022/05/14 09:16:30;;;;;;;10.37;4.60;;;17.90;99.90;;;;;;4946999;29;20454;-76
2022/05/14 09:19:00;;;;;;;6.60;3.20;;;17.80;99.90;;;;;;4944940;28;20979;-76
2022/05/14 09:21:30;;;;;;;7.33;3.80;;;17.80;99.90;;;;;;4944526;28;20548;-76
2022/05/14 09:23:59;;;;;;;5.10;3.10;;;17.80;99.90;;;;;;4943461;28;21119;-75
2022/05/14 09:26:32;;;;;;;9.70;3.10;;;17.90;99.90;;;;;;4941291;28;20857;-75
2022/05/14 09:29:14;;;;;;;15.20;4.17;;;18.10;99.90;;;;;;4940182;28;20470;-76
2022/05/14 09:31:53;;;;;;;11.07;4.30;;;18.20;99.90;;;;;;4939359;28;20482;-81
2022/05/14 09:34:23;;;;;;;7.17;3.47;;;18.40;99.90;;;;;;4937975;29;20454;-77
2022/05/14 09:36:52;;;;;;;6.90;3.37;;;18.40;99.90;;;;;;4940103;29;20441;-78
2022/05/14 09:39:22;;;;;;;10.80;3.03;;;18.30;99.90;;;;;;4942065;28;20443;-76
2022/05/14 09:41:52;;;;;;;7.23;3.37;;;18.20;99.90;;;;;;4937381;28;21067;-77
2022/05/14 09:44:24;;;;;;;8.93;3.83;;;18.20;99.90;;;;;;4937215;28;20485;-75
2022/05/14 09:47:09;;;;;;;7.33;3.63;;;18.20;99.90;;;;;;4938538;28;20481;-75
2022/05/14 09:49:41;;;;;;;8.90;3.93;;;18.10;99.90;;;;;;4938676;29;20507;-76
2022/05/14 09:52:13;;;;;;;9.83;3.40;;;17.90;99.90;;;;;;4941066;28;20503;-75
2022/05/14 09:54:42;;;;;;;15.87;4.10;;;17.90;99.90;;;;;;4942320;28;20462;-74
2022/05/14 09:57:32;;;;;;;9.20;3.67;;;18.20;99.90;;;;;;4942273;28;20500;-76
2022/05/14 10:00:07;;;;;;;7.47;4.07;;;18.50;99.90;;;;;;4945474;29;20831;-76
2022/05/14 10:02:52;;;;;;;7.40;3.30;;;18.70;99.90;;;;;;4926989;29;20764;-77
2022/05/14 10:05:34;;;;;;;5.90;3.10;;;18.70;99.90;;;;;;4921532;29;20484;-78
2022/05/14 10:08:11;;;;;;;8.33;4.10;;;18.70;99.90;;;;;;4927557;29;20495;-78
2022/05/14 10:10:47;;;;;;;10.67;3.60;;;18.60;99.90;;;;;;4928269;29;21039;-78
2022/05/14 10:13:23;;;;;;;9.47;3.20;;;18.60;99.90;;;;;;4927785;29;20439;-78
2022/05/14 10:16:03;;;;;;;6.00;3.47;;;18.60;99.90;;;;;;4927630;29;20462;-77
2022/05/14 10:18:43;;;;;;;10.33;3.80;;;18.60;99.90;;;;;;4930564;29;20460;-77
2022/05/14 10:21:19;;;;;;;8.53;3.63;;;18.50;99.90;;;;;;4923874;29;20572;-76
2022/05/14 10:27:10;;;;;;;7.03;3.13;;;18.60;99.90;;;;;;4922998;28;20484;-80
2022/05/14 10:29:57;;;;;;;6.90;4.73;;;19.00;99.90;;;;;;4928507;29;20443;-81
2022/05/14 10:32:27;;;;;;;7.50;3.13;;;19.20;99.90;;;;;;4929548;29;20457;-81
2022/05/14 10:35:01;;;;;;;12.70;3.87;;;19.20;99.90;;;;;;4926536;29;20452;-81
2022/05/14 10:37:49;;;;;;;12.73;4.43;;;19.20;99.90;;;;;;4927276;28;20527;-80
2022/05/14 10:40:22;;;;;;;9.97;4.30;;;19.10;99.90;;;;;;4927804;29;20497;-80
2022/05/14 10:43:09;;;;;;;7.90;3.43;;;18.90;99.90;;;;;;4922459;29;20962;-80
2022/05/14 10:45:41;;;;;;;9.20;3.50;;;18.70;99.90;;;;;;4921783;29;20455;-80
2022/05/14 10:48:20;;;;;;;8.97;4.10;;;18.50;99.90;;;;;;4922205;29;21044;-80
2022/05/14 10:50:47;;;;;;;10.43;3.87;;;18.30;99.90;;;;;;4921428;29;20878;-79
2022/05/14 10:53:18;;;;;;;7.80;4.20;;;18.30;99.90;;;;;;4925886;29;20738;-77
2022/05/14 10:55:53;;;;;;;9.67;4.27;;;18.50;99.90;;;;;;4922874;29;20446;-76
2022/05/14 10:58:35;;;;;;;5.57;3.87;;;18.50;99.90;;;;;;4922446;29;20982;-80
2022/05/14 11:01:06;;;;;;;6.70;3.23;;;18.50;99.90;;;;;;4922343;29;20621;-77
2022/05/14 11:03:36;;;;;;;9.53;4.03;;;18.50;99.90;;;;;;4920410;29;20568;-77
2022/05/14 11:06:13;;;;;;;6.80;3.10;;;18.50;99.90;;;;;;4924222;29;20456;-76
2022/05/14 11:08:45;;;;;;;8.87;3.67;;;18.60;99.90;;;;;;4923742;29;20558;-77
2022/05/14 11:11:17;;;;;;;11.00;4.90;;;18.70;99.90;;;;;;4926028;29;20472;-79
2022/05/14 11:13:57;;;;;;;9.03;3.00;;;18.80;99.90;;;;;;4925418;29;20439;-78
2022/05/14 11:16:38;;;;;;;6.00;3.67;;;18.80;99.90;;;;;;4923712;29;20448;-78
2022/05/14 11:19:07;;;;;;;12.13;4.80;;;18.90;99.90;;;;;;4926692;29;20455;-77
2022/05/14 11:21:38;;;;;;;13.10;3.80;;;18.80;99.90;;;;;;4928084;29;21001;-78
2022/05/14 11:24:11;;;;;;;8.70;3.77;;;18.50;99.90;;;;;;4928679;29;20617;-78
2022/05/14 11:26:49;;;;;;;7.80;3.53;;;18.40;99.90;;;;;;4924474;29;20464;-77
2022/05/14 11:29:20;;;;;;;7.20;2.93;;;18.40;99.90;;;;;;4924019;29;20439;-77
2022/05/14 11:31:56;;;;;;;8.40;3.70;;;18.40;99.90;;;;;;4922958;29;20580;-77
2022/05/14 11:34:27;;;;;;;7.00;3.60;;;18.40;99.90;;;;;;4925283;29;20439;-76
2022/05/14 11:36:57;;;;;;;10.97;3.23;;;18.40;99.90;;;;;;4920084;29;20455;-78
2022/05/14 11:39:33;;;;;;;7.33;2.90;;;18.40;99.90;;;;;;4928314;29;20524;-77
2022/05/14 11:42:11;;;;;;;6.83;2.57;;;18.40;99.90;;;;;;4929822;29;20483;-76
2022/05/14 11:44:47;;;;;;;7.53;2.57;;;18.40;99.90;;;;;;4922070;29;20479;-75
2022/05/14 11:47:41;;;;;;;6.07;2.17;;;18.30;99.90;;;;;;4920137;28;20486;-76
2022/05/14 11:50:13;;;;;;;7.10;3.43;;;18.30;99.90;;;;;;4921340;29;20834;-74
2022/05/14 11:52:53;;;;;;;9.10;3.17;;;18.50;99.90;;;;;;4920642;29;20471;-74
2022/05/14 11:55:27;;;;;;;7.50;2.90;;;18.40;99.90;;;;;;4921450;29;20435;-74
2022/05/14 11:58:03;;;;;;;7.97;2.83;;;18.40;99.90;;;;;;4918559;29;20442;-74
2022/05/14 12:00:34;;;;;;;11.00;3.50;;;18.30;99.90;;;;;;4921756;29;20529;-74
2022/05/14 12:03:09;;;;;;;10.00;4.37;;;18.40;99.90;;;;;;4921580;28;20451;-75
2022/05/14 12:05:53;;;;;;;8.87;3.30;;;18.60;99.90;;;;;;4922272;29;20623;-76
2022/05/14 12:08:46;;;;;;;8.33;3.87;;;18.90;99.90;;;;;;4917845;29;20504;-75
2022/05/14 12:11:25;;;;;;;5.90;2.40;;;19.00;99.90;;;;;;4920693;29;20538;-75
2022/05/14 12:14:01;;;;;;;7.23;3.13;;;18.90;99.90;;;;;;4921619;29;20448;-75
2022/05/14 12:16:31;;;;;;;6.23;3.60;;;18.90;99.90;;;;;;4921772;29;20440;-75
2022/05/14 12:19:01;;;;;;;9.37;2.73;;;18.70;99.90;;;;;;4919515;29;20470;-77
2022/05/14 12:21:30;;;;;;;7.77;3.13;;;18.70;99.90;;;;;;4918201;29;20468;-78
2022/05/14 12:23:58;;;;;;;8.17;2.80;;;18.60;99.90;;;;;;4921348;29;20984;-77
2022/05/14 12:26:29;;;;;;;6.17;2.90;;;18.60;99.90;;;;;;4922745;29;20749;-78
2022/05/14 12:29:00;;;;;;;8.97;3.30;;;18.50;99.90;;;;;;4921676;29;20483;-78
2022/05/14 12:34:17;;;;;;;7.33;3.07;;;18.50;99.90;;;;;;4922128;29;20839;-77
2022/05/14 12:36:49;;;;;;;9.20;3.67;;;18.40;99.90;;;;;;4921765;29;20965;-76
2022/05/14 12:39:21;;;;;;;4.70;2.60;;;18.20;99.90;;;;;;4921806;29;20555;-77
2022/05/14 12:41:54;;;;;;;8.50;3.00;;;18.10;99.90;;;;;;4918862;29;20818;-76
2022/05/14 12:44:25;;;;;;;4.70;2.60;;;18.10;99.90;;;;;;4922548;28;20661;-77
2022/05/14 12:46:56;;;;;;;5.87;2.80;;;18.10;99.90;;;;;;4926885;29;20519;-79
2022/05/14 12:49:27;;;;;;;11.20;3.03;;;18.20;99.90;;;;;;4924834;29;20491;-77
2022/05/14 12:51:58;;;;;;;6.80;3.23;;;18.20;99.90;;;;;;4929763;29;20539;-76
2022/05/14 12:54:29;;;;;;;7.70;3.10;;;18.20;99.90;;;;;;4933311;28;20486;-75
2022/05/14 12:57:01;;;;;;;5.60;3.03;;;18.10;99.90;;;;;;4935152;29;21126;-78
2022/05/14 12:59:29;;;;;;;10.37;3.33;;;18.10;99.90;;;;;;4932327;29;20471;-76
2022/05/14 13:02:01;;;;;;;8.50;3.00;;;18.20;99.90;;;;;;4925642;29;20525;-77
2022/05/14 13:04:34;;;;;;;9.20;3.47;;;18.20;99.90;;;;;;4924372;29;20528;-77
2022/05/14 13:07:04;;;;;;;5.50;3.70;;;18.40;99.90;;;;;;4924211;29;20528;-77
2022/05/14 13:09:32;;;;;;;5.80;2.50;;;18.60;99.90;;;;;;4924216;29;20766;-76
2022/05/14 13:12:01;;;;;;;4.07;3.50;;;18.70;99.90;;;;;;4923264;29;20483;-76
2022/05/14 13:14:33;;;;;;;11.07;3.30;;;18.80;99.90;;;;;;4924707;29;20759;-77
2022/05/14 13:17:04;;;;;;;5.13;2.47;;;18.70;99.90;;;;;;4923805;29;20446;-78
2022/05/14 13:19:38;;;;;;;6.60;2.57;;;18.50;99.90;;;;;;4924408;29;20707;-77
2022/05/14 13:22:10;;;;;;;9.60;3.67;;;18.30;99.90;;;;;;4924271;29;20779;-76